createdAt,value
2018-08-22T04:30:24.822Z,99.90
2018-08-22T04:32:53.053Z,99.90
2018-08-22T04:35:21.247Z,99.90
2018-08-22T04:37:49.662Z,99.90
2018-08-22T04:40:17.877Z,99.90
2018-08-22T04:42:46.333Z,99.90
2018-08-22T04:45:14.553Z,99.90
2018-08-22T04:47:42.880Z,99.90
2018-08-22T04:50:11.054Z,99.90
2018-08-22T04:52:39.234Z,99.90
2018-08-22T04:55:07.363Z,99.90
2018-08-22T04:57:35.529Z,99.90
2018-08-22T05:00:03.910Z,99.90
2018-08-22T05:02:32.079Z,99.90
2018-08-22T05:05:00.213Z,99.90
2018-08-22T05:07:28.345Z,99.90
2018-08-22T05:09:56.528Z,99.90
2018-08-22T05:12:24.675Z,99.90
2018-08-22T05:14:52.852Z,99.70
2018-08-22T05:17:21.060Z,99.90
2018-08-22T05:19:49.397Z,99.80
2018-08-22T05:22:17.532Z,99.80
2018-08-22T05:24:45.711Z,99.20
2018-08-22T05:27:13.777Z,98.60
2018-08-22T05:29:41.900Z,98.30
2018-08-22T05:32:10.007Z,97.30
2018-08-22T05:34:38.132Z,95.20
2018-08-22T05:37:06.317Z,92.80
2018-08-22T05:39:34.444Z,90.70
2018-08-22T05:42:02.560Z,90.00
2018-08-22T05:44:30.688Z,86.10
2018-08-22T05:46:58.769Z,82.80
2018-08-22T05:49:26.885Z,81.20
2018-08-22T05:51:55.015Z,79.90
2018-08-22T05:54:23.134Z,80.00
2018-08-22T05:56:51.249Z,80.00
2018-08-22T05:59:19.391Z,79.20
2018-08-22T06:01:47.612Z,76.40
2018-08-22T06:04:15.724Z,73.80
2018-08-22T06:06:43.820Z,73.30
2018-08-22T06:09:13.024Z,71.80
2018-08-22T06:11:42.450Z,74.10
2018-08-22T06:14:10.549Z,74.80
2018-08-22T06:16:38.660Z,74.90
2018-08-22T06:19:06.819Z,75.30
2018-08-22T06:21:34.901Z,76.50
2018-08-22T06:24:03.120Z,75.40
2018-08-22T06:26:31.295Z,75.00
2018-08-22T06:28:59.392Z,76.10
2018-08-22T06:31:27.491Z,74.50
2018-08-22T06:33:55.579Z,71.90
2018-08-22T06:36:23.797Z,72.50
2018-08-22T06:38:51.797Z,73.00
2018-08-22T06:41:19.948Z,74.60
2018-08-22T06:43:48.064Z,75.60
2018-08-22T08:29:58.024Z,54.50
2018-08-22T08:32:26.191Z,53.90
2018-08-22T08:34:54.456Z,51.50
2018-08-22T08:37:22.580Z,53.00
2018-08-22T08:39:50.730Z,55.00
2018-08-22T08:42:18.887Z,54.10
2018-08-22T08:44:47.004Z,52.60
2018-08-22T08:47:15.104Z,52.10
2018-08-22T08:49:43.422Z,50.80
2018-08-22T08:52:11.491Z,51.40
2018-08-22T08:54:39.592Z,51.00
2018-08-22T08:57:07.754Z,50.40
2018-08-22T08:59:35.885Z,49.60
2018-08-22T09:02:03.992Z,48.70
2018-08-22T09:04:32.173Z,48.60
2018-08-22T09:07:00.331Z,49.40
2018-08-22T09:09:28.452Z,49.90
2018-08-22T09:11:59.617Z,49.60
2018-08-22T09:14:28.071Z,50.10
2018-08-22T09:16:56.728Z,50.00
2018-08-22T09:19:24.866Z,50.10
2018-08-22T09:21:53.123Z,50.30
2018-08-22T09:24:21.232Z,49.80
2018-08-22T09:26:49.420Z,49.70
2018-08-22T09:29:17.538Z,48.70
2018-08-22T09:31:45.665Z,49.80
2018-08-22T09:34:13.752Z,47.90
2018-08-22T09:36:41.910Z,48.30
2018-08-22T09:39:13.211Z,48.90
2018-08-22T09:41:42.617Z,49.10
2018-08-22T09:44:10.743Z,49.90
2018-08-22T09:46:39.685Z,49.60
2018-08-22T09:49:07.789Z,48.10
2018-08-22T09:51:36.192Z,48.00
2018-08-22T09:54:04.276Z,47.30
2018-08-22T10:36:51.779Z,45.80
2018-08-22T10:39:20.037Z,44.00
2018-08-22T10:41:48.208Z,45.40
2018-08-22T10:44:16.384Z,43.30
2018-08-22T10:46:44.555Z,44.30
2018-08-22T10:49:12.652Z,45.90
2018-08-22T10:51:40.751Z,45.00
2018-08-22T10:54:11.246Z,44.50
2018-08-22T10:56:39.356Z,45.30
2018-08-22T10:59:07.476Z,46.90
2018-08-22T11:01:35.651Z,47.60
2018-08-22T11:04:03.727Z,47.60
2018-08-22T11:06:31.847Z,48.20
2018-08-22T11:08:59.958Z,49.10
2018-08-22T11:11:28.077Z,50.20
2018-08-22T11:13:56.184Z,50.90
2018-08-22T11:16:24.394Z,50.70
2018-08-22T11:18:52.551Z,50.50
2018-08-22T11:21:32.108Z,49.50
2018-08-22T11:24:11.751Z,49.90
2018-08-22T11:26:51.297Z,49.90
2018-08-22T11:29:31.144Z,49.30
2018-08-22T11:32:10.788Z,50.00
2018-08-22T11:34:46.357Z,49.40
2018-08-22T11:37:15.564Z,49.60
2018-08-22T11:39:44.771Z,51.00
2018-08-22T11:42:12.864Z,50.10
2018-08-22T11:44:41.080Z,52.10
2018-08-22T11:47:09.253Z,51.60
2018-08-22T11:49:37.426Z,50.90
2018-08-22T11:52:05.599Z,50.80
2018-08-22T11:54:34.593Z,50.50
2018-08-22T11:57:02.906Z,50.90
2018-08-22T11:59:31.174Z,50.40
2018-08-22T12:01:59.344Z,50.40
2018-08-22T12:04:27.394Z,52.00
2018-08-22T12:06:55.567Z,52.10
2018-08-22T12:09:23.746Z,52.20
2018-08-22T12:11:51.841Z,52.00
2018-08-22T12:14:19.987Z,49.80
2018-08-22T12:16:48.080Z,49.70
2018-08-22T12:19:16.169Z,50.90
2018-08-22T12:21:44.283Z,52.00
2018-08-22T12:24:12.369Z,52.10
2018-08-22T12:26:40.553Z,51.50
2018-08-22T12:29:08.642Z,50.90
2018-08-22T12:31:36.740Z,50.00
2018-08-22T12:34:04.868Z,50.60
2018-08-22T12:36:32.967Z,49.60
2018-08-22T12:39:01.121Z,49.00
2018-08-22T12:41:29.191Z,48.30
2018-08-22T12:43:57.265Z,48.90
2018-08-22T12:46:25.350Z,49.60
2018-08-22T12:48:53.452Z,50.10
2018-08-22T12:51:21.994Z,50.30
2018-08-22T12:53:50.168Z,50.50
2018-08-22T12:56:18.711Z,50.20
2018-08-22T12:58:46.823Z,50.50
2018-08-22T13:01:14.905Z,51.30
2018-08-22T13:03:43.069Z,50.40
2018-08-22T13:06:11.151Z,50.30
2018-08-22T13:08:39.242Z,51.40
2018-08-22T13:11:07.366Z,52.80
2018-08-22T13:13:35.444Z,52.80
2018-08-22T13:16:03.640Z,53.00
2018-08-22T13:18:31.727Z,53.70
2018-08-22T13:20:59.812Z,54.00
2018-08-22T13:23:27.917Z,53.80
2018-08-22T13:25:56.045Z,53.60
2018-08-22T13:28:24.134Z,52.70
2018-08-22T13:30:52.224Z,53.50
2018-08-22T13:33:20.493Z,53.60
2018-08-22T13:35:48.622Z,54.30
2018-08-22T13:38:16.834Z,53.10
2018-08-22T13:40:44.912Z,53.50
2018-08-22T13:43:13.041Z,52.00
2018-08-22T13:45:41.221Z,51.30
2018-08-22T13:48:09.303Z,51.90
2018-08-22T13:50:37.392Z,52.00
2018-08-22T13:53:05.636Z,51.80
2018-08-22T13:55:33.728Z,51.50
2018-08-22T13:58:02.313Z,51.70
2018-08-22T14:00:30.778Z,49.80
2018-08-22T14:02:59.154Z,50.60
2018-08-22T14:05:27.245Z,52.10
2018-08-22T14:07:55.409Z,51.30
2018-08-22T14:10:23.501Z,51.50
2018-08-22T14:12:51.650Z,50.80
2018-08-22T14:15:19.729Z,50.60
2018-08-22T14:17:47.820Z,51.70
2018-08-22T14:20:15.884Z,51.50
2018-08-22T14:22:44.784Z,51.60
2018-08-22T14:25:12.931Z,51.70
2018-08-22T14:27:41.016Z,52.10
2018-08-22T14:30:09.176Z,52.50
2018-08-22T14:32:37.266Z,52.80
2018-08-22T14:35:05.631Z,51.70
2018-08-22T14:37:33.731Z,51.10
2018-08-22T14:40:01.830Z,52.50
2018-08-22T14:42:29.964Z,51.30
2018-08-22T14:44:58.101Z,51.40
2018-08-22T14:47:26.162Z,52.20
2018-08-22T14:49:54.257Z,53.00
2018-08-22T14:52:22.337Z,53.90
2018-08-22T14:54:50.467Z,54.80
2018-08-22T14:57:18.690Z,54.70
2018-08-22T14:59:47.324Z,54.40
2018-08-22T15:02:15.445Z,54.80
2018-08-22T15:04:43.522Z,54.90
2018-08-22T15:07:11.693Z,55.00
2018-08-22T15:09:39.764Z,56.20
2018-08-22T15:12:07.850Z,57.80
2018-08-22T15:14:36.015Z,58.00
2018-08-22T15:17:04.186Z,59.40
2018-08-22T15:19:32.261Z,57.00
2018-08-22T15:22:00.349Z,60.20
2018-08-22T15:24:28.463Z,59.20
2018-08-22T15:26:56.677Z,60.30
2018-08-22T15:29:24.779Z,64.90
2018-08-22T15:31:52.861Z,67.60
2018-08-22T15:34:20.962Z,69.30
2018-08-22T15:36:49.071Z,70.60
2018-08-22T15:39:17.244Z,71.80
2018-08-22T15:41:45.356Z,72.70
2018-08-22T15:44:13.490Z,73.40
2018-08-22T15:46:41.569Z,74.50
2018-08-22T15:49:09.736Z,74.10
2018-08-22T15:51:37.807Z,73.70
2018-08-22T15:54:10.055Z,73.50
2018-08-22T15:56:39.788Z,73.00
2018-08-22T15:59:08.280Z,75.10
2018-08-22T16:01:37.007Z,76.20
2018-08-22T16:04:05.088Z,79.40
2018-08-22T16:06:33.203Z,82.50
2018-08-22T16:09:01.344Z,85.00
2018-08-22T16:11:29.424Z,86.70
2018-08-22T16:13:57.528Z,91.40
2018-08-22T16:16:25.704Z,91.30
2018-08-22T16:18:53.874Z,93.00
2018-08-22T16:21:21.948Z,94.80
2018-08-22T16:23:50.054Z,95.50
2018-08-22T16:26:18.164Z,95.00
2018-08-22T16:28:57.732Z,94.90
2018-08-22T16:31:31.347Z,95.50
2018-08-22T16:33:59.495Z,94.30
2018-08-22T16:36:28.616Z,94.40
2018-08-22T16:38:56.705Z,95.10
2018-08-22T16:41:24.851Z,93.90
2018-08-22T16:43:53.025Z,92.10
2018-08-22T16:46:21.095Z,91.50
2018-08-22T16:48:50.428Z,93.10
2018-08-22T16:51:19.076Z,91.80
2018-08-22T16:53:58.196Z,92.60
2018-08-22T16:56:26.345Z,94.20
2018-08-22T16:58:58.493Z,94.20
2018-08-22T17:01:26.596Z,95.90
2018-08-22T17:03:55.344Z,95.60
2018-08-22T17:06:24.704Z,95.20
2018-08-22T17:08:52.789Z,95.70
2018-08-22T17:11:20.882Z,94.80
2018-08-22T17:13:50.221Z,94.30
2018-08-22T17:16:18.378Z,93.20
2018-08-22T17:18:46.564Z,93.60
2018-08-22T17:21:14.687Z,91.70
2018-08-22T17:23:43.204Z,90.80
2018-08-22T17:26:16.400Z,88.40
2018-08-22T17:28:47.910Z,86.30
2018-08-22T17:31:16.641Z,85.70
2018-08-22T17:33:50.308Z,81.90
2018-08-22T17:36:18.402Z,83.00
2018-08-22T17:38:49.932Z,79.60
2018-08-22T17:41:20.091Z,78.30
2018-08-22T17:44:00.955Z,77.50
2018-08-22T17:46:30.592Z,81.40
2018-08-22T17:48:58.752Z,81.50
2018-08-22T17:51:27.021Z,76.20
2018-08-22T17:53:55.135Z,75.90
2018-08-22T17:56:24.356Z,75.60
2018-08-22T17:58:53.425Z,75.70
2018-08-22T18:01:22.145Z,76.10
2018-08-22T18:03:50.304Z,78.00
2018-08-22T18:06:19.731Z,78.20
2018-08-22T18:08:47.764Z,78.70
2018-08-22T18:11:15.914Z,81.10
2018-08-22T18:13:44.012Z,82.30
2018-08-22T18:16:12.095Z,91.10
2018-08-22T18:18:40.206Z,92.50
2018-08-22T18:21:08.291Z,95.50
2018-08-22T18:23:37.768Z,98.10
2018-08-22T18:26:06.084Z,98.80
2018-08-22T18:28:34.171Z,99.00
2018-08-22T18:31:02.244Z,99.30
2018-08-22T18:33:30.336Z,98.40
2018-08-22T18:35:58.425Z,97.20
2018-08-22T18:38:26.512Z,96.60
2018-08-22T18:41:05.449Z,96.10
2018-08-22T18:43:33.506Z,95.80
2018-08-22T18:46:04.746Z,95.00
2018-08-22T18:48:33.828Z,95.10
2018-08-22T18:51:02.183Z,95.10
2018-08-22T18:53:30.265Z,96.40
2018-08-22T18:56:10.318Z,96.70
2018-08-22T18:58:38.834Z,96.20
2018-08-22T19:01:07.028Z,96.50
2018-08-22T19:03:35.488Z,96.00
2018-08-22T19:06:03.666Z,95.80
2018-08-22T19:08:35.003Z,94.90
2018-08-22T19:11:03.190Z,94.40
2018-08-22T19:13:31.255Z,93.80
2018-08-22T19:16:00.690Z,93.00
2018-08-22T19:18:28.931Z,92.60
2018-08-22T19:20:59.087Z,92.90
2018-08-22T19:23:27.534Z,92.90
2018-08-22T19:25:56.253Z,92.60
2018-08-22T19:28:24.340Z,92.20
2018-08-22T19:30:52.447Z,92.40
2018-08-22T19:33:24.673Z,92.10
2018-08-22T19:35:52.891Z,92.00
2018-08-22T19:38:26.168Z,91.90
2018-08-22T19:40:54.516Z,91.30
2018-08-22T19:43:22.615Z,90.50
2018-08-22T19:45:50.729Z,90.30
2018-08-22T19:48:18.904Z,90.50
2018-08-22T19:50:46.960Z,90.40
2018-08-22T19:53:15.048Z,90.10
2018-08-22T19:55:43.141Z,90.00
2018-08-22T19:58:11.476Z,88.90
2018-08-22T20:00:39.571Z,88.30
2018-08-22T20:03:07.660Z,87.70
2018-08-22T20:05:49.418Z,87.40
2018-08-22T20:08:17.511Z,87.30
2018-08-22T20:10:46.536Z,87.40
2018-08-22T20:13:14.622Z,88.10
2018-08-22T20:15:42.736Z,89.30
2018-08-22T20:18:11.673Z,89.20
2018-08-22T20:20:39.764Z,89.20
2018-08-22T20:23:07.927Z,89.40
2018-08-22T20:25:35.944Z,89.90
2018-08-22T20:28:04.039Z,90.30
2018-08-22T20:30:32.212Z,90.90
2018-08-22T20:33:06.335Z,91.10
2018-08-22T20:35:38.824Z,91.30
2018-08-22T20:38:08.948Z,91.70
2018-08-22T20:40:37.131Z,91.90
2018-08-22T20:43:05.358Z,91.60
2018-08-22T20:45:38.392Z,91.60
2018-08-22T20:48:11.471Z,91.60
2018-08-22T20:50:41.812Z,91.50
2018-08-22T20:53:12.020Z,91.30
2018-08-22T20:55:40.219Z,91.60
2018-08-22T20:58:14.092Z,91.30
2018-08-22T21:00:42.195Z,91.40
2018-08-22T21:03:10.356Z,91.20
2018-08-22T21:05:38.374Z,91.10
2018-08-22T21:08:06.469Z,91.30
2018-08-22T21:10:34.560Z,91.00
2018-08-22T21:13:04.146Z,90.80
2018-08-22T21:15:32.240Z,90.80
2018-08-22T21:18:00.337Z,91.10
2018-08-22T21:20:28.448Z,90.90
2018-08-22T21:22:57.171Z,91.10
2018-08-22T21:25:25.240Z,91.60
2018-08-22T21:27:53.739Z,92.10
2018-08-22T21:30:21.859Z,92.30
2018-08-22T21:32:50.161Z,92.90
2018-08-22T21:35:25.892Z,93.30
2018-08-22T21:37:57.826Z,93.60
2018-08-22T21:40:25.917Z,93.60
2018-08-22T21:42:54.060Z,92.50
2018-08-22T21:45:22.226Z,92.30
2018-08-22T21:48:27.127Z,91.90
2018-08-22T21:50:55.301Z,92.00
2018-08-22T21:53:23.477Z,91.80
2018-08-22T21:55:52.606Z,91.90
2018-08-22T21:58:20.702Z,92.00
2018-08-22T22:00:49.319Z,92.00
2018-08-22T22:03:22.983Z,92.10
2018-08-22T22:05:56.722Z,92.50
2018-08-22T22:08:25.048Z,94.30
2018-08-22T22:10:59.847Z,96.10
2018-08-22T22:13:29.207Z,97.00
2018-08-22T22:16:01.725Z,97.50
2018-08-22T22:18:31.640Z,97.50
2018-08-22T22:21:07.597Z,97.70
2018-08-22T22:23:41.297Z,97.70
2018-08-22T22:26:09.442Z,97.90
2018-08-22T22:28:37.552Z,97.60
2018-08-22T22:31:07.935Z,98.10
2018-08-22T22:33:36.053Z,98.30
2018-08-22T22:36:04.221Z,98.70
2018-08-22T22:38:32.399Z,99.30
2018-08-22T22:41:00.570Z,99.90
2018-08-22T22:43:28.692Z,99.90
